Atlantic - Newfoundland: Past 24 Hour Conditions

 

St. Anthony Airport

06:30 AM NDT 31 October 2014
This table is a summary of hourly weather conditions for the past 24 hours.
Date / Time
(NDT)
Wind(knots) Conditions Visibility(km) Pressure(kPa) Air tempC) Relative humidity(%) Dew pointC)
31 October 2014
6:30 WSW 13 gust 18 Clear 16 100.6 2 88 0
5:30 WSW 9 gust 15 Clear 16 100.5 2 88 0
4:30 WSW 12 Clear 16 100.4 2 87 0
3:30 WSW 10 Mainly Clear 16 100.4 3 91 1
2:30 WSW 8 Clear 16 100.3 3 91 2
1:30 WSW 10 Clear 16 100.2 3 90 2
0:30 WSW 8 Clear 16 100.2 4 91 3
30 October 2014
23:30 W 12 Mainly Clear 16 100.1 5 91 3
22:30 WSW 9 Partly Cloudy 16 100.1 5 94 4
21:30 SW 13 gust 20 Mostly Cloudy 16 100.1 6 92 4
20:30 SW 17 gust 24 Cloudy 16 100.0 6 90 5
19:30 SW 19 gust 30 Cloudy 16 99.9 6 89 5
18:30 SSW 14 gust 22 Cloudy 16 99.9 7 90 5
17:30 SW 17 Cloudy 16 99.8 7 90 6
16:30 SW 19 Partly Cloudy 16 99.8 8 88 6
15:30 SW 17 gust 23 Mostly Cloudy 16 99.7 9 90 7
14:30 SW 19 gust 25 Light Rain 16 99.6 10 93 9
13:30 SE 3 Light Rain 4 99.6 8 97 8
12:30 SSE 4 Light Rain 13 99.7 7 98 7
11:30 SSE 10 Cloudy 16 99.7 6 98 6
10:30 SE 8 Light Rain 5 99.8 6 98 5
9:30 SE 9 Mist 8 99.9 6 98 5
8:30 SE 12 Cloudy 15 99.9 5 98 5
7:30 SE 12 Light Rain 16 100.0 5 98 5
6:30 SE 15 Cloudy 16 100.2 5 98 4
 
Map of Atlantic - Newfoundland marine weather areas Southwestern Grand Banks - 44138 Banquereau - 44139 Tail of the Bank - 44140 Nickerson Bank - 44251 Northeast Burgeo Bank - 44255 Blanc-Sablon Airport Cap Whittle Chevery Natashquan Airport Heath Point Miscou Island Grand Étang Ingonish Beach North Mountain St.Paul Island J.A. Douglas McCurdy Sydney Airport Charlottetown Airport East Point North Cape Argentia Bonavista Burgeo Cape Race Corner Brook Daniel's Harbour Englee Ferolle Point La Scie Port aux Basques Rocky Harbour Sagona Island St. Anthony Airport St. John's Int'l Airport St. Lawrence Stephenville Airport Twillingate Winterland Wreckhouse Cartwright Airport Mary's Harbour Grates Cove Pool's Island Marticot Island Long Pond Îles de la Madeleine Airport
Legend: buoyBuoy land stationLand Station